Time;durP1;ratioP1;P1;durP2;ratioP2;P2;SDS_P1;SDS_P2;PMS_P1;PMS_P2;Temp;Humidity;BMP_temperature;BMP_pressure;BME280_temperature;BME280_humidity;BME280_pressure;Samples;Min_cycle;Max_cycle;Signal;HPM_P1;HPM_P2
2022/05/28 00:01:19;;;;;;;21.95;2.97;;;8.10;99.90;;;;;;5057021;28;20033;-67
2022/05/28 00:03:46;;;;;;;22.48;3.33;;;8.10;99.90;;;;;;5057314;28;20029;-67
2022/05/28 00:06:20;;;;;;;23.25;3.47;;;8.20;99.90;;;;;;5057240;28;20058;-67
2022/05/28 00:08:46;;;;;;;20.67;2.75;;;8.20;99.90;;;;;;5057025;28;20055;-67
2022/05/28 00:11:14;;;;;;;14.82;2.10;;;8.30;99.90;;;;;;5057448;28;20119;-67
2022/05/28 00:13:39;;;;;;;21.95;4.50;;;8.30;99.90;;;;;;5057274;28;20043;-67
2022/05/28 00:16:05;;;;;;;18.55;3.95;;;8.30;99.90;;;;;;5056810;28;20104;-67
2022/05/28 00:18:31;;;;;;;38.05;3.75;;;8.40;99.90;;;;;;5056631;28;20104;-67
2022/05/28 00:20:57;;;;;;;36.42;6.15;;;8.50;99.90;;;;;;5056519;28;20460;-67
2022/05/28 00:23:23;;;;;;;27.35;3.97;;;8.50;99.90;;;;;;5056562;28;20056;-67
2022/05/28 00:25:49;;;;;;;34.17;4.38;;;8.50;99.90;;;;;;5056856;28;20025;-67
2022/05/28 00:28:14;;;;;;;20.30;4.03;;;8.60;99.90;;;;;;5056675;28;20079;-67
2022/05/28 00:30:41;;;;;;;25.52;4.07;;;8.60;99.90;;;;;;5056792;28;20025;-67
2022/05/28 00:33:07;;;;;;;26.02;3.53;;;8.60;99.90;;;;;;5056380;28;20397;-67
2022/05/28 00:35:32;;;;;;;17.73;2.75;;;8.60;99.90;;;;;;5056743;28;20108;-67
2022/05/28 00:37:58;;;;;;;18.40;3.80;;;8.60;99.90;;;;;;5056812;28;20061;-67
2022/05/28 00:40:26;;;;;;;22.15;3.65;;;8.70;99.90;;;;;;5056569;28;20037;-67
2022/05/28 00:42:56;;;;;;;33.80;4.38;;;8.70;99.90;;;;;;5056371;28;20393;-66
2022/05/28 00:45:22;;;;;;;17.20;3.90;;;8.70;99.90;;;;;;5056872;28;20021;-67
2022/05/28 00:47:51;;;;;;;33.28;3.97;;;8.70;99.90;;;;;;5056456;28;20021;-67
2022/05/28 00:50:17;;;;;;;18.63;3.42;;;8.70;99.90;;;;;;5056782;28;20560;-67
2022/05/28 00:52:44;;;;;;;21.40;3.58;;;8.70;99.90;;;;;;5056067;28;20036;-67
2022/05/28 00:55:11;;;;;;;26.88;3.08;;;8.80;99.90;;;;;;5056966;28;20021;-67
2022/05/28 00:57:41;;;;;;;29.67;3.85;;;8.80;99.90;;;;;;5056217;28;20029;-67
2022/05/28 01:00:14;;;;;;;26.25;3.63;;;8.80;99.90;;;;;;5056184;28;20102;-67
2022/05/28 01:03:10;;;;;;;37.40;4.93;;;8.80;99.90;;;;;;5055717;28;20484;-67
2022/05/28 01:05:50;;;;;;;22.92;4.15;;;8.70;99.90;;;;;;5055349;28;20029;-67
2022/05/28 01:08:30;;;;;;;22.63;3.42;;;8.60;99.90;;;;;;5056112;28;20021;-67
2022/05/28 01:11:19;;;;;;;28.80;3.30;;;8.60;99.90;;;;;;5056330;28;20021;-67
2022/05/28 01:13:57;;;;;;;18.45;4.07;;;8.60;99.90;;;;;;5055735;28;20029;-67
2022/05/28 01:16:28;;;;;;;22.60;3.05;;;8.60;99.90;;;;;;5055867;28;20017;-67
2022/05/28 01:19:05;;;;;;;28.02;3.53;;;8.50;99.90;;;;;;5055986;28;20025;-67
2022/05/28 01:22:07;;;;;;;16.95;2.80;;;8.50;99.90;;;;;;5055574;28;20036;-67
2022/05/28 01:24:54;;;;;;;16.20;2.47;;;8.60;99.90;;;;;;5055719;28;20483;-67
2022/05/28 01:27:31;;;;;;;23.02;2.85;;;8.60;99.90;;;;;;5055528;28;20021;-67
2022/05/28 01:30:04;;;;;;;14.23;2.67;;;8.60;99.90;;;;;;5055480;28;20447;-67
2022/05/28 01:32:32;;;;;;;19.42;3.75;;;8.60;99.90;;;;;;5055266;28;20031;-67
2022/05/28 01:35:00;;;;;;;23.48;2.90;;;8.60;99.90;;;;;;5055331;28;20401;-67
2022/05/28 01:37:26;;;;;;;23.38;3.55;;;8.60;99.90;;;;;;5055569;28;20385;-67
2022/05/28 01:39:54;;;;;;;25.23;2.55;;;8.60;99.90;;;;;;5055240;28;20029;-67
2022/05/28 01:42:20;;;;;;;14.73;2.67;;;8.60;99.90;;;;;;5055771;28;20492;-67
2022/05/28 01:44:49;;;;;;;12.13;2.33;;;8.50;99.90;;;;;;5055383;28;20029;-67
2022/05/28 01:47:16;;;;;;;15.57;2.75;;;8.50;99.90;;;;;;5055109;28;20469;-67
2022/05/28 01:49:43;;;;;;;22.17;3.67;;;8.50;99.90;;;;;;5055177;28;20033;-67
2022/05/28 01:52:10;;;;;;;20.00;3.60;;;8.50;99.90;;;;;;5055248;28;20041;-67
2022/05/28 01:54:43;;;;;;;19.23;4.20;;;8.50;99.90;;;;;;5055231;28;20025;-67
2022/05/28 01:57:10;;;;;;;20.27;3.17;;;8.60;99.90;;;;;;5055211;28;20029;-67
2022/05/28 01:59:36;;;;;;;20.67;3.10;;;8.50;99.90;;;;;;5054914;28;20605;-67
2022/05/28 02:02:06;;;;;;;18.75;2.95;;;8.40;99.90;;;;;;5054800;28;20082;-67
2022/05/28 02:04:34;;;;;;;16.42;3.95;;;8.20;99.90;;;;;;5055499;28;20425;-67
2022/05/28 02:07:02;;;;;;;14.40;2.67;;;8.00;99.90;;;;;;5054975;28;20104;-67
2022/05/28 02:09:34;;;;;;;25.70;4.25;;;7.90;99.90;;;;;;5054813;28;20017;-67
2022/05/28 02:12:27;;;;;;;22.98;3.65;;;7.80;99.90;;;;;;5054858;28;20032;-67
2022/05/28 02:15:30;;;;;;;23.25;4.00;;;7.80;99.90;;;;;;5054427;28;20124;-66
2022/05/28 02:18:10;;;;;;;20.58;3.60;;;7.80;99.90;;;;;;5054700;28;20043;-66
2022/05/28 02:20:58;;;;;;;23.80;4.65;;;7.80;99.90;;;;;;5054404;28;20028;-66
2022/05/28 02:23:39;;;;;;;15.25;3.55;;;7.80;99.90;;;;;;5054403;28;20037;-67
2022/05/28 02:26:11;;;;;;;24.30;3.75;;;7.90;99.90;;;;;;5054719;28;20064;-67
2022/05/28 02:28:37;;;;;;;21.48;3.25;;;7.80;99.90;;;;;;5054624;28;20036;-66
2022/05/28 02:31:18;;;;;;;17.50;3.20;;;7.90;99.90;;;;;;5054330;28;20018;-66
2022/05/28 02:33:45;;;;;;;23.75;3.78;;;8.00;99.90;;;;;;5054245;28;20504;-66
2022/05/28 02:36:15;;;;;;;23.23;3.08;;;8.20;99.90;;;;;;5054173;28;20025;-66
2022/05/28 02:38:41;;;;;;;18.10;4.10;;;8.30;99.90;;;;;;5054242;28;20028;-67
2022/05/28 02:41:07;;;;;;;25.83;4.18;;;8.50;99.90;;;;;;5054057;28;20029;-67
2022/05/28 02:43:33;;;;;;;25.77;3.80;;;8.40;99.90;;;;;;5053987;28;20021;-66
2022/05/28 02:46:00;;;;;;;23.40;4.07;;;8.50;99.90;;;;;;5054323;28;20099;-66
2022/05/28 02:48:26;;;;;;;26.38;5.15;;;8.70;99.90;;;;;;5069276;28;20032;-66
2022/05/28 02:50:51;;;;;;;21.25;3.65;;;8.80;99.90;;;;;;5053928;28;20021;-67
2022/05/28 02:53:17;;;;;;;19.30;3.13;;;8.80;99.90;;;;;;5053833;28;20025;-67
2022/05/28 02:55:42;;;;;;;19.05;3.85;;;8.80;99.90;;;;;;5053840;28;20029;-67
2022/05/28 02:58:08;;;;;;;20.52;3.92;;;8.80;99.90;;;;;;5054049;28;20037;-66
2022/05/28 03:00:33;;;;;;;24.17;4.13;;;8.80;99.90;;;;;;5053716;28;20103;-66
2022/05/28 03:02:59;;;;;;;19.88;3.72;;;8.90;99.90;;;;;;5053581;28;20080;-67
2022/05/28 03:05:26;;;;;;;16.90;3.38;;;9.00;99.90;;;;;;5053904;28;20459;-67
2022/05/28 03:07:52;;;;;;;28.80;4.53;;;9.10;99.90;;;;;;5053731;28;20029;-67
2022/05/28 03:10:17;;;;;;;15.07;3.00;;;9.10;99.90;;;;;;5054165;28;20082;-67
2022/05/28 03:12:43;;;;;;;17.30;3.00;;;9.00;99.90;;;;;;5053344;28;20033;-67
2022/05/28 03:15:10;;;;;;;9.50;2.88;;;8.80;99.90;;;;;;5053658;28;20040;-67
2022/05/28 03:17:36;;;;;;;19.27;3.15;;;8.70;99.90;;;;;;5053673;28;20416;-66
2022/05/28 03:20:02;;;;;;;33.55;6.68;;;8.60;99.90;;;;;;5053653;28;20029;-66
2022/05/28 03:22:28;;;;;;;28.45;4.93;;;8.50;99.90;;;;;;5053462;28;20396;-66
2022/05/28 03:24:54;;;;;;;43.42;18.67;;;8.50;99.90;;;;;;5053370;28;20025;-66
2022/05/28 03:27:19;;;;;;;23.05;6.10;;;8.60;99.90;;;;;;5053353;28;20024;-66
2022/05/28 03:29:45;;;;;;;16.13;4.63;;;8.60;99.90;;;;;;5053146;28;20028;-66
2022/05/28 03:32:11;;;;;;;22.60;5.75;;;8.70;99.90;;;;;;5053538;28;20033;-66
2022/05/28 03:34:36;;;;;;;19.38;3.63;;;8.70;99.90;;;;;;5053484;28;20017;-66
2022/05/28 03:37:02;;;;;;;30.75;10.10;;;8.80;99.90;;;;;;5053240;28;20057;-66
2022/05/28 03:39:28;;;;;;;18.73;5.45;;;8.90;99.90;;;;;;5053308;28;20435;-68
2022/05/28 03:41:54;;;;;;;40.35;16.58;;;9.00;99.90;;;;;;5053420;28;20060;-67
2022/05/28 03:44:19;;;;;;;24.05;5.20;;;9.00;99.90;;;;;;5053258;28;20068;-66
2022/05/28 03:46:45;;;;;;;28.45;7.20;;;9.00;99.90;;;;;;5053235;28;20070;-66
2022/05/28 03:49:26;;;;;;;17.58;3.83;;;9.00;99.90;;;;;;5053431;28;20480;-66
2022/05/28 03:51:52;;;;;;;21.60;3.58;;;9.10;99.90;;;;;;5053350;28;20051;-66
2022/05/28 03:54:18;;;;;;;22.98;4.47;;;9.20;99.90;;;;;;5053344;28;20454;-66
2022/05/28 03:56:45;;;;;;;29.60;3.28;;;9.30;99.90;;;;;;5053377;28;20075;-66
2022/05/28 03:59:11;;;;;;;24.35;3.50;;;9.30;99.90;;;;;;5053349;28;20079;-66
2022/05/28 04:01:37;;;;;;;13.57;3.22;;;9.40;99.90;;;;;;5053004;28;20037;-67
2022/05/28 04:04:04;;;;;;;14.98;3.20;;;9.50;99.90;;;;;;5053016;28;20061;-67
2022/05/28 04:06:29;;;;;;;22.88;5.53;;;9.60;99.90;;;;;;5053024;28;20051;-67
2022/05/28 04:08:56;;;;;;;35.25;5.22;;;9.70;99.90;;;;;;5052961;28;20064;-67
2022/05/28 04:11:21;;;;;;;30.77;4.70;;;9.60;99.90;;;;;;5053192;28;20033;-67
2022/05/28 04:13:47;;;;;;;27.05;4.10;;;9.40;99.90;;;;;;5052704;28;20047;-67
2022/05/28 04:16:14;;;;;;;33.28;4.75;;;9.30;99.90;;;;;;5053137;28;20107;-67
2022/05/28 04:18:40;;;;;;;40.53;7.25;;;9.20;99.90;;;;;;5052950;28;20025;-67
2022/05/28 04:21:06;;;;;;;31.45;5.38;;;9.20;99.90;;;;;;5053122;28;20028;-67
2022/05/28 04:23:32;;;;;;;22.60;3.53;;;9.20;99.90;;;;;;5052938;28;20036;-67
2022/05/28 04:25:58;;;;;;;35.05;4.85;;;9.30;99.90;;;;;;5053244;28;20022;-67
2022/05/28 04:28:23;;;;;;;32.85;5.60;;;9.30;99.90;;;;;;5053145;28;20033;-67
2022/05/28 04:30:49;;;;;;;42.22;5.78;;;9.50;99.90;;;;;;5052775;28;20386;-67
2022/05/28 04:33:15;;;;;;;34.53;6.25;;;9.60;99.90;;;;;;5052708;28;20061;-67
2022/05/28 04:35:40;;;;;;;35.13;4.70;;;9.60;99.90;;;;;;5052844;28;20048;-67
2022/05/28 04:38:06;;;;;;;30.42;5.75;;;9.60;99.90;;;;;;5053652;28;20032;-67
2022/05/28 04:40:31;;;;;;;32.78;5.90;;;9.70;99.90;;;;;;5053379;28;20036;-67
2022/05/28 04:42:57;;;;;;;30.52;5.03;;;9.80;99.90;;;;;;5056191;28;20527;-67
2022/05/28 04:45:22;;;;;;;30.52;4.43;;;10.00;99.90;;;;;;5056287;28;20431;-67
2022/05/28 04:47:48;;;;;;;30.55;5.32;;;10.10;99.90;;;;;;5056309;28;20542;-67
2022/05/28 04:50:14;;;;;;;24.23;5.40;;;10.10;99.90;;;;;;5056557;28;20025;-67
2022/05/28 04:52:41;;;;;;;28.20;4.32;;;10.00;99.90;;;;;;5056329;28;20020;-67
2022/05/28 04:55:08;;;;;;;33.08;4.97;;;9.90;99.90;;;;;;5056465;28;20025;-67
2022/05/28 04:57:34;;;;;;;32.88;5.25;;;9.90;99.90;;;;;;5056051;28;20033;-67
2022/05/28 05:00:01;;;;;;;34.95;5.72;;;10.00;99.90;;;;;;5056330;28;20108;-67
2022/05/28 05:02:27;;;;;;;31.58;4.80;;;10.10;99.90;;;;;;5055767;28;20457;-67
2022/05/28 05:04:57;;;;;;;32.60;5.05;;;10.40;99.90;;;;;;5055890;28;20021;-67
2022/05/28 05:07:23;;;;;;;36.92;5.97;;;10.50;99.90;;;;;;5056404;28;20036;-67
2022/05/28 05:09:48;;;;;;;35.95;5.32;;;10.60;99.90;;;;;;5055883;28;20101;-67
2022/05/28 05:12:14;;;;;;;37.92;6.28;;;10.60;99.90;;;;;;5055876;28;20033;-67
2022/05/28 05:14:39;;;;;;;34.53;4.55;;;10.60;99.90;;;;;;5055607;28;20033;-67
2022/05/28 05:17:05;;;;;;;30.48;5.95;;;10.60;99.90;;;;;;5055703;28;20386;-67
2022/05/28 05:19:30;;;;;;;39.85;5.35;;;10.60;99.90;;;;;;5055709;28;20440;-67
2022/05/28 05:21:56;;;;;;;34.80;5.43;;;10.60;99.90;;;;;;5055818;28;20021;-67
2022/05/28 05:24:25;;;;;;;39.67;4.63;;;10.70;99.90;;;;;;5055631;28;20017;-67
2022/05/28 05:26:50;;;;;;;36.88;5.47;;;10.80;99.90;;;;;;5055581;28;20029;-67
2022/05/28 05:29:16;;;;;;;22.98;6.43;;;10.80;99.90;;;;;;5055578;28;20036;-68
2022/05/28 05:31:42;;;;;;;35.25;5.80;;;10.90;99.90;;;;;;5055609;28;20461;-67
2022/05/28 05:34:08;;;;;;;30.67;5.53;;;10.80;99.90;;;;;;5055627;28;20025;-67
2022/05/28 05:36:34;;;;;;;31.02;5.50;;;10.90;99.90;;;;;;5055379;28;20036;-67
2022/05/28 05:39:00;;;;;;;35.35;6.47;;;10.80;99.90;;;;;;5055492;28;20024;-67
2022/05/28 05:41:26;;;;;;;44.38;6.60;;;10.90;99.90;;;;;;5055480;28;20384;-67
2022/05/28 05:43:52;;;;;;;45.00;5.60;;;10.90;99.90;;;;;;5055117;28;20036;-66
2022/05/28 05:46:17;;;;;;;36.03;6.28;;;10.90;99.90;;;;;;5055149;28;20017;-66
2022/05/28 05:48:43;;;;;;;27.15;6.03;;;11.00;99.90;;;;;;5055153;28;20029;-66
2022/05/28 05:51:13;;;;;;;23.42;4.72;;;11.00;99.90;;;;;;5054965;28;20420;-66
2022/05/28 05:53:40;;;;;;;27.85;3.97;;;10.90;99.90;;;;;;5055096;28;20434;-67
2022/05/28 05:56:05;;;;;;;34.42;5.95;;;11.10;99.90;;;;;;5055200;28;20051;-66
2022/05/28 05:58:34;;;;;;;23.92;4.43;;;11.10;99.90;;;;;;5054905;28;20029;-66
2022/05/28 06:01:00;;;;;;;39.38;7.63;;;11.20;99.90;;;;;;5055134;28;20021;-66
2022/05/28 06:03:26;;;;;;;31.27;6.25;;;11.30;99.90;;;;;;5055014;28;20051;-66
2022/05/28 06:05:56;;;;;;;28.92;4.47;;;11.40;99.90;;;;;;5054956;28;20067;-66
2022/05/28 06:08:22;;;;;;;37.40;4.80;;;11.40;99.90;;;;;;5055066;28;20021;-66
2022/05/28 06:10:47;;;;;;;22.58;4.47;;;11.40;99.90;;;;;;5054849;28;20032;-66
2022/05/28 06:13:13;;;;;;;26.05;4.35;;;11.50;99.90;;;;;;5055114;28;20048;-66
2022/05/28 06:15:38;;;;;;;29.05;4.22;;;11.70;99.90;;;;;;5054606;28;20473;-66
2022/05/28 06:18:04;;;;;;;23.15;4.22;;;11.70;99.90;;;;;;5055088;28;20036;-66
2022/05/28 06:20:30;;;;;;;30.42;3.95;;;11.90;99.90;;;;;;5054487;28;20033;-66
2022/05/28 06:22:56;;;;;;;42.47;4.25;;;12.10;99.90;;;;;;5054476;28;20071;-66
2022/05/28 06:25:21;;;;;;;28.80;5.75;;;12.30;99.90;;;;;;5054457;28;20439;-67
2022/05/28 06:27:47;;;;;;;24.00;3.83;;;12.50;99.90;;;;;;5054663;28;20481;-67
2022/05/28 06:30:13;;;;;;;33.75;4.45;;;12.40;99.90;;;;;;5054612;28;20047;-67
2022/05/28 06:32:38;;;;;;;23.25;5.10;;;12.10;99.90;;;;;;5054185;28;20051;-66
2022/05/28 06:35:04;;;;;;;32.10;4.70;;;12.20;99.90;;;;;;5054259;28;20024;-66
2022/05/28 06:37:30;;;;;;;20.02;4.28;;;12.30;99.90;;;;;;5054236;28;20389;-67
2022/05/28 06:39:56;;;;;;;38.13;14.73;;;11.90;99.90;;;;;;5054290;28;20025;-67
2022/05/28 06:42:21;;;;;;;42.08;14.10;;;11.10;99.90;;;;;;5054262;28;20036;-66
2022/05/28 06:44:47;;;;;;;59.72;22.88;;;10.50;99.90;;;;;;5055041;28;20033;-67
2022/05/28 06:47:12;;;;;;;55.70;13.27;;;10.20;99.90;;;;;;5054292;28;20108;-66
2022/05/28 06:49:38;;;;;;;45.42;7.53;;;10.00;99.90;;;;;;5054229;28;20033;-66
2022/05/28 06:52:04;;;;;;;35.15;8.77;;;10.00;99.90;;;;;;5054416;28;20064;-66
2022/05/28 06:54:30;;;;;;;27.42;5.60;;;10.10;99.90;;;;;;5053753;28;20111;-67
2022/05/28 06:56:55;;;;;;;35.30;6.20;;;10.30;99.90;;;;;;5053771;28;20114;-67
2022/05/28 06:59:21;;;;;;;44.65;6.63;;;10.50;99.90;;;;;;5053907;28;20032;-67
2022/05/28 07:01:46;;;;;;;39.63;5.85;;;11.00;99.90;;;;;;5053695;28;20032;-67
2022/05/28 07:04:12;;;;;;;38.92;5.90;;;11.10;99.90;;;;;;5053215;28;20028;-66
2022/05/28 07:06:37;;;;;;;34.53;5.85;;;11.10;99.90;;;;;;5053877;28;20029;-66
2022/05/28 07:09:05;;;;;;;36.45;5.03;;;11.20;99.90;;;;;;5053673;28;20469;-67
2022/05/28 07:11:31;;;;;;;31.73;4.72;;;11.20;99.90;;;;;;5053637;28;20598;-67
2022/05/28 07:13:57;;;;;;;31.17;5.18;;;11.30;99.90;;;;;;5053476;28;20408;-67
2022/05/28 07:16:23;;;;;;;27.75;4.72;;;11.40;99.90;;;;;;5053597;28;20029;-66
2022/05/28 07:18:48;;;;;;;30.52;6.00;;;11.50;99.90;;;;;;5053535;28;20392;-66
2022/05/28 07:21:14;;;;;;;24.80;4.05;;;11.60;99.90;;;;;;5053849;28;20070;-66
2022/05/28 07:23:41;;;;;;;31.13;5.40;;;11.70;99.90;;;;;;5053665;28;20055;-66
2022/05/28 07:26:13;;;;;;;26.75;6.53;;;11.70;99.90;;;;;;5053434;28;20104;-66
2022/05/28 07:28:40;;;;;;;25.70;4.15;;;11.80;99.90;;;;;;5053408;28;20473;-66
2022/05/28 07:31:12;;;;;;;22.77;4.07;;;11.90;99.90;;;;;;5053617;28;20021;-67
2022/05/28 07:33:43;;;;;;;28.45;3.90;;;11.90;99.90;;;;;;5053524;28;20024;-66
2022/05/28 07:36:11;;;;;;;16.95;3.83;;;11.70;99.90;;;;;;5053294;28;20096;-66
2022/05/28 07:38:38;;;;;;;20.63;3.75;;;11.60;99.90;;;;;;5053510;28;20033;-66
2022/05/28 07:41:09;;;;;;;23.38;5.18;;;11.70;99.90;;;;;;5053393;28;20023;-66
2022/05/28 07:43:35;;;;;;;20.63;3.22;;;11.70;99.90;;;;;;5053198;28;20032;-67
2022/05/28 07:46:02;;;;;;;20.38;3.95;;;11.70;99.90;;;;;;5053434;28;20477;-66
2022/05/28 07:48:27;;;;;;;24.80;3.90;;;11.80;99.90;;;;;;5053526;28;20488;-66
2022/05/28 07:50:53;;;;;;;23.75;5.70;;;11.80;99.90;;;;;;5053384;28;20029;-66
2022/05/28 07:53:19;;;;;;;25.45;4.95;;;11.80;99.90;;;;;;5053352;28;20036;-66
2022/05/28 07:55:45;;;;;;;25.63;4.15;;;11.70;99.90;;;;;;5053430;28;20029;-66
2022/05/28 07:58:12;;;;;;;13.68;2.83;;;11.50;99.90;;;;;;5053141;28;20025;-66
2022/05/28 08:00:41;;;;;;;36.33;5.13;;;11.40;99.90;;;;;;5053424;28;20440;-66
2022/05/28 08:03:08;;;;;;;24.90;4.88;;;11.30;99.90;;;;;;5053066;28;20036;-66
2022/05/28 08:05:35;;;;;;;23.92;3.78;;;11.30;99.90;;;;;;5053306;28;20155;-66
2022/05/28 08:08:00;;;;;;;26.52;4.95;;;11.40;99.90;;;;;;5052932;28;20029;-66
2022/05/28 08:10:26;;;;;;;29.50;4.80;;;11.50;99.90;;;;;;5053258;28;20546;-66
2022/05/28 08:12:52;;;;;;;26.95;4.50;;;11.50;99.90;;;;;;5052949;28;20056;-67
2022/05/28 08:15:17;;;;;;;39.10;5.00;;;11.50;99.90;;;;;;5055179;28;20032;-66
2022/05/28 08:17:43;;;;;;;35.35;6.32;;;11.50;99.90;;;;;;5056883;28;20032;-66
2022/05/28 08:20:10;;;;;;;26.33;5.60;;;11.50;99.90;;;;;;5057121;28;20436;-66
2022/05/28 08:25:20;;;;;;;43.22;7.40;;;11.70;99.90;;;;;;5056758;28;20024;-66
2022/05/28 08:27:46;;;;;;;45.95;4.90;;;11.80;99.90;;;;;;5056716;28;20021;-66
2022/05/28 08:30:12;;;;;;;24.38;5.93;;;11.70;99.90;;;;;;5056599;28;20037;-66
2022/05/28 08:32:37;;;;;;;23.33;4.47;;;11.70;99.90;;;;;;5056643;28;20033;-66
2022/05/28 08:35:04;;;;;;;21.67;4.35;;;11.80;99.90;;;;;;5056532;28;20109;-68
2022/05/28 08:37:29;;;;;;;43.53;6.70;;;11.70;99.90;;;;;;5056511;28;20495;-67
2022/05/28 08:39:55;;;;;;;24.02;4.03;;;11.70;99.90;;;;;;5056524;28;20068;-67
2022/05/28 08:42:25;;;;;;;40.08;4.97;;;11.70;99.90;;;;;;5056548;28;20209;-67
2022/05/28 08:44:52;;;;;;;19.65;4.03;;;11.60;99.90;;;;;;5056473;28;20126;-67
2022/05/28 08:47:40;;;;;;;35.03;4.40;;;11.60;99.90;;;;;;5056374;28;20033;-67
2022/05/28 08:50:07;;;;;;;26.45;6.03;;;11.60;99.90;;;;;;5056514;28;20020;-66
2022/05/28 08:52:43;;;;;;;28.40;5.53;;;11.70;99.90;;;;;;5056347;28;20029;-66
2022/05/28 08:55:16;;;;;;;25.63;7.15;;;11.80;99.90;;;;;;5056416;28;20029;-66
2022/05/28 08:58:04;;;;;;;26.98;6.15;;;11.90;99.90;;;;;;5056273;28;20108;-67
2022/05/28 09:00:52;;;;;;;26.77;5.18;;;12.10;99.90;;;;;;5056118;28;20508;-67
2022/05/28 09:03:23;;;;;;;31.35;4.50;;;12.20;99.90;;;;;;5056137;28;20039;-67
2022/05/28 09:06:24;;;;;;;26.13;4.15;;;12.30;99.90;;;;;;5056280;28;20029;-67
2022/05/28 09:08:52;;;;;;;32.05;4.40;;;12.30;99.90;;;;;;5047273;28;20040;-66
2022/05/28 09:11:36;;;;;;;19.17;4.53;;;12.40;99.90;;;;;;5056092;28;20384;-67
2022/05/28 09:14:20;;;;;;;28.33;4.80;;;12.50;99.90;;;;;;5055777;28;20037;-67
2022/05/28 09:16:47;;;;;;;19.10;3.63;;;12.60;99.90;;;;;;5056003;28;20151;-67
2022/05/28 09:19:26;;;;;;;30.60;3.80;;;12.70;99.90;;;;;;5055743;28;20116;-67
2022/05/28 09:21:52;;;;;;;24.85;4.35;;;12.90;99.90;;;;;;5056216;28;20040;-67
2022/05/28 09:24:21;;;;;;;19.23;5.03;;;12.90;99.90;;;;;;5055531;28;20388;-67
2022/05/28 09:26:58;;;;;;;24.48;3.22;;;12.90;99.90;;;;;;5055016;28;20032;-66
2022/05/28 09:29:33;;;;;;;28.40;4.72;;;13.00;99.90;;;;;;5056046;28;20029;-67
2022/05/28 09:32:12;;;;;;;20.58;3.53;;;12.80;99.90;;;;;;5055680;28;20032;-66
2022/05/28 09:34:51;;;;;;;27.02;3.90;;;12.70;99.90;;;;;;5055425;28;20091;-66
2022/05/28 09:38:06;;;;;;;28.55;4.85;;;12.60;99.90;;;;;;5055657;28;20472;-67
2022/05/28 09:40:42;;;;;;;;;;;12.80;99.90;;;;;;5038191;28;20090;-66
2022/05/28 09:43:32;;;;;;;37.88;5.55;;;13.00;99.90;;;;;;5055112;28;20436;-67
2022/05/28 09:46:19;;;;;;;28.13;5.57;;;13.00;99.90;;;;;;5055449;28;20385;-67
2022/05/28 09:48:47;;;;;;;35.72;4.10;;;12.90;99.90;;;;;;5055569;28;20065;-67
2022/05/28 09:51:26;;;;;;;37.28;5.47;;;12.80;99.90;;;;;;5055052;28;20021;-67
2022/05/28 09:54:17;;;;;;;23.10;4.07;;;12.70;99.90;;;;;;5055028;28;20370;-67
2022/05/28 09:56:50;;;;;;;27.85;4.45;;;12.70;99.90;;;;;;5055076;28;20021;-67
2022/05/28 09:59:27;;;;;;;25.40;4.87;;;12.50;99.90;;;;;;5055252;28;20017;-67
2022/05/28 10:02:08;;;;;;;36.15;7.53;;;12.00;99.90;;;;;;5054814;28;20040;-67
2022/05/28 10:04:44;;;;;;;28.45;6.45;;;11.50;99.90;;;;;;5054829;28;20439;-67
2022/05/28 10:07:10;;;;;;;47.72;7.07;;;11.30;99.90;;;;;;5055063;28;20067;-67
2022/05/28 10:09:46;;;;;;;36.67;7.03;;;11.20;99.90;;;;;;5054973;28;20013;-67
2022/05/28 10:12:22;;;;;;;36.33;5.15;;;11.20;99.90;;;;;;5054831;28;20083;-66
2022/05/28 10:15:17;;;;;;;28.77;4.32;;;11.30;99.90;;;;;;5054610;28;20087;-66
2022/05/28 10:17:53;;;;;;;48.15;10.70;;;11.50;99.90;;;;;;5052779;28;20032;-66
2022/05/28 10:20:20;;;;;;;38.13;7.25;;;11.70;99.90;;;;;;5055126;28;20032;-66
2022/05/28 10:22:47;;;;;;;29.92;5.38;;;11.80;99.90;;;;;;5054450;28;20028;-67
2022/05/28 10:25:37;;;;;;;35.10;5.03;;;11.90;99.90;;;;;;5055035;28;20049;-67
2022/05/28 10:28:03;;;;;;;33.30;5.35;;;12.00;99.90;;;;;;5054435;28;20496;-68
2022/05/28 10:30:35;;;;;;;24.40;4.05;;;12.10;99.90;;;;;;5054367;28;20021;-67
2022/05/28 10:33:11;;;;;;;33.05;4.70;;;12.20;99.90;;;;;;5054245;28;20039;-67
2022/05/28 10:35:38;;;;;;;23.85;4.20;;;12.30;99.90;;;;;;5054378;28;20036;-66
2022/05/28 10:38:23;;;;;;;36.30;5.40;;;12.30;99.90;;;;;;5053274;28;20033;-66
2022/05/28 10:40:50;;;;;;;30.50;5.35;;;12.40;99.90;;;;;;5069519;28;20021;-67
2022/05/28 10:43:37;;;;;;;37.72;5.38;;;12.40;99.90;;;;;;5053892;28;20032;-67
2022/05/28 10:46:29;;;;;;;32.47;5.82;;;12.40;99.90;;;;;;5054610;28;20044;-67
2022/05/28 10:49:07;;;;;;;28.85;4.25;;;12.30;99.90;;;;;;5054320;28;20054;-66
2022/05/28 10:51:46;;;;;;;37.42;5.63;;;12.40;99.90;;;;;;5053984;28;20519;-67
2022/05/28 10:54:23;;;;;;;22.08;4.03;;;12.50;99.90;;;;;;5053853;28;20116;-67
2022/05/28 10:57:25;;;;;;;32.70;5.20;;;12.70;99.90;;;;;;5054184;28;20071;-66
2022/05/28 11:00:15;;;;;;;29.40;5.18;;;12.60;99.90;;;;;;5053877;28;20052;-67
2022/05/28 11:03:03;;;;;;;39.38;4.90;;;12.30;99.90;;;;;;5053677;28;20156;-67
2022/05/28 11:05:38;;;;;;;29.95;4.68;;;12.30;99.90;;;;;;5054061;28;20063;-67
2022/05/28 11:08:15;;;;;;;39.67;6.53;;;12.20;99.90;;;;;;5054031;28;20024;-66
2022/05/28 11:10:46;;;;;;;20.02;3.70;;;12.20;99.90;;;;;;5053862;28;20472;-67
2022/05/28 11:13:24;;;;;;;39.20;4.40;;;12.40;99.90;;;;;;5053505;28;20037;-67
2022/05/28 11:15:58;;;;;;;29.00;4.38;;;12.60;99.90;;;;;;5053921;28;20035;-67
2022/05/28 11:18:48;;;;;;;29.88;4.63;;;12.60;99.90;;;;;;5053892;28;20021;-67
2022/05/28 11:21:32;;;;;;;22.15;4.90;;;12.70;99.90;;;;;;5053993;28;20037;-67
2022/05/28 11:24:39;;;;;;;24.40;4.82;;;12.60;99.90;;;;;;5053721;28;20108;-67
2022/05/28 11:27:17;;;;;;;40.85;4.20;;;12.50;99.90;;;;;;5053283;28;20136;-67
2022/05/28 11:30:04;;;;;;;30.88;6.38;;;12.40;99.90;;;;;;5053687;28;20469;-67
2022/05/28 11:32:34;;;;;;;33.67;4.88;;;12.10;99.90;;;;;;5053424;28;20025;-70
2022/05/28 11:35:25;;;;;;;33.58;6.88;;;11.70;99.90;;;;;;5053437;28;20415;-67
2022/05/28 11:38:20;;;;;;;33.70;5.57;;;11.60;99.90;;;;;;5053655;28;20033;-67
2022/05/28 11:40:56;;;;;;;34.97;6.50;;;11.60;99.90;;;;;;5053061;28;20041;-67
2022/05/28 11:43:28;;;;;;;24.25;4.78;;;11.60;99.90;;;;;;5053339;28;20044;-67
2022/05/28 11:46:12;;;;;;;32.60;5.22;;;11.70;99.90;;;;;;5053508;28;20028;-68
2022/05/28 11:52:08;;;;;;;30.47;4.97;;;11.80;99.90;;;;;;5057963;28;20384;-66
2022/05/28 11:54:53;;;;;;;33.55;5.75;;;12.00;99.90;;;;;;5057290;28;20505;-66
2022/05/28 11:57:38;;;;;;;29.25;4.70;;;12.10;99.90;;;;;;5057207;28;20033;-66
2022/05/28 12:00:07;;;;;;;35.50;5.55;;;12.00;99.90;;;;;;5057436;28;20036;-66
2022/05/28 12:02:39;;;;;;;43.58;5.85;;;12.00;99.90;;;;;;5057140;28;20036;-66
2022/05/28 12:05:22;;;;;;;32.88;5.05;;;12.00;99.90;;;;;;5057640;28;20017;-66
2022/05/28 12:07:57;;;;;;;28.38;5.78;;;11.90;99.90;;;;;;5057063;28;20489;-66
2022/05/28 12:10:38;;;;;;;31.00;4.80;;;11.90;99.90;;;;;;5057213;28;20366;-66
2022/05/28 12:13:04;;;;;;;28.58;4.35;;;11.80;99.90;;;;;;5057382;28;20029;-66
2022/05/28 12:15:33;;;;;;;26.33;4.35;;;11.90;99.90;;;;;;5057134;28;20450;-66
2022/05/28 12:18:14;;;;;;;31.83;6.28;;;11.90;99.90;;;;;;5057205;28;20029;-66
2022/05/28 12:20:58;;;;;;;34.63;5.10;;;12.00;99.90;;;;;;5056819;28;20111;-66
2022/05/28 12:23:30;;;;;;;24.25;4.50;;;12.10;99.90;;;;;;5056800;28;20056;-66
2022/05/28 12:25:56;;;;;;;34.33;5.00;;;12.10;99.90;;;;;;5056696;28;20059;-66
2022/05/28 12:28:31;;;;;;;23.13;5.03;;;12.30;99.90;;;;;;5056893;28;20052;-66
2022/05/28 12:31:02;;;;;;;38.20;6.55;;;12.40;99.90;;;;;;5057492;28;20416;-66
2022/05/28 12:33:33;;;;;;;25.63;4.22;;;12.40;99.90;;;;;;5056976;28;20108;-67
2022/05/28 12:36:12;;;;;;;23.75;4.07;;;12.50;99.90;;;;;;5056572;28;20037;-67
2022/05/28 12:39:01;;;;;;;27.85;3.70;;;12.50;99.90;;;;;;5056734;28;20039;-67
2022/05/28 12:41:29;;;;;;;19.40;3.15;;;12.70;99.90;;;;;;5056103;28;20124;-67
2022/05/28 12:44:18;;;;;;;27.05;5.20;;;12.70;99.90;;;;;;5056560;28;20108;-67
2022/05/28 12:46:57;;;;;;;26.77;5.28;;;12.60;99.90;;;;;;5056633;28;20021;-67
2022/05/28 12:49:52;;;;;;;22.02;4.22;;;12.40;99.90;;;;;;5055029;28;20092;-66
2022/05/28 12:52:51;;;;;;;25.42;4.30;;;12.20;99.90;;;;;;5056538;28;20075;-66
2022/05/28 12:55:31;;;;;;;33.00;4.43;;;12.20;99.90;;;;;;5056349;28;20495;-67
2022/05/28 12:58:05;;;;;;;24.27;3.75;;;12.20;99.90;;;;;;5056427;28;20375;-66
2022/05/28 13:00:49;;;;;;;25.88;4.72;;;12.30;99.90;;;;;;5056197;28;20040;-67
2022/05/28 13:03:18;;;;;;;46.88;6.57;;;12.10;99.90;;;;;;5055523;28;20086;-66
2022/05/28 13:05:53;;;;;;;34.63;4.55;;;11.80;99.90;;;;;;5056335;28;20025;-66
2022/05/28 13:08:25;;;;;;;33.83;4.95;;;11.70;99.90;;;;;;5055983;28;20095;-66